createdAt,value
2017-09-26T00:00:03.786Z,13.97
2017-09-26T00:02:30.457Z,14.33
2017-09-26T00:07:52.632Z,16.37
2017-09-26T00:10:20.239Z,16.43
2017-09-26T00:12:47.047Z,16.40
2017-09-26T00:15:14.704Z,14.87
2017-09-26T00:17:42.219Z,16.20
2017-09-26T00:20:09.448Z,16.10
2017-09-26T00:22:36.521Z,17.30
2017-09-26T00:25:04.100Z,13.47
2017-09-26T00:30:35.852Z,13.40
2017-09-26T00:33:18.969Z,13.33
2017-09-26T00:35:46.897Z,14.00
2017-09-26T00:38:15.328Z,13.20
2017-09-26T00:40:42.175Z,13.33
2017-09-26T00:43:09.943Z,13.87
2017-09-26T00:45:36.828Z,11.60
2017-09-26T00:50:59.469Z,11.97
2017-09-26T00:53:26.185Z,13.03
2017-09-26T00:55:52.994Z,12.63
2017-09-26T00:58:22.050Z,13.00
2017-09-26T01:00:48.932Z,12.03
2017-09-26T01:03:21.380Z,13.27
2017-09-26T01:08:54.261Z,12.13
2017-09-26T01:11:21.960Z,13.93
2017-09-26T01:13:48.667Z,13.27
2017-09-26T01:18:48.312Z,13.13
2017-09-26T01:21:16.099Z,14.27
2017-09-26T01:26:38.530Z,12.77
2017-09-26T01:29:05.250Z,12.10
2017-09-26T01:31:32.116Z,11.90
2017-09-26T01:33:58.969Z,11.57
2017-09-26T01:39:29.683Z,14.10
2017-09-26T01:41:57.247Z,14.57
2017-09-26T01:44:27.875Z,14.50
2017-09-26T01:46:55.200Z,14.83
2017-09-26T01:49:21.692Z,12.57
2017-09-26T01:51:49.329Z,12.30
2017-09-26T01:54:26.240Z,11.97
2017-09-26T01:56:59.151Z,12.43
2017-09-26T01:59:27.887Z,13.87
2017-09-26T02:01:54.658Z,13.07
2017-09-26T02:04:21.469Z,13.23
2017-09-26T02:06:49.607Z,14.63
2017-09-26T02:09:16.543Z,13.90
2017-09-26T02:11:43.239Z,15.27
2017-09-26T02:14:09.796Z,13.20
2017-09-26T02:16:36.335Z,12.93
2017-09-26T02:19:15.257Z,14.60
2017-09-26T02:24:18.635Z,15.93
2017-09-26T02:26:45.368Z,16.30
2017-09-26T02:29:12.312Z,16.13
2017-09-26T02:31:39.940Z,15.90
2017-09-26T02:34:06.740Z,15.27
2017-09-26T02:36:34.119Z,16.00
2017-09-26T02:39:01.586Z,15.70
2017-09-26T02:41:28.562Z,17.80
2017-09-26T02:43:56.259Z,17.10
2017-09-26T02:46:23.796Z,18.33
2017-09-26T02:48:51.695Z,18.20
2017-09-26T02:51:18.331Z,15.40
2017-09-26T02:53:47.936Z,16.80
2017-09-26T02:56:14.729Z,15.00
2017-09-26T02:58:42.604Z,18.13
2017-09-26T03:01:09.292Z,18.47
2017-09-26T03:03:35.920Z,20.50
2017-09-26T03:06:13.942Z,21.07
2017-09-26T03:08:41.511Z,19.07
2017-09-26T03:11:08.058Z,19.20
2017-09-26T03:13:34.680Z,20.10
2017-09-26T03:16:01.378Z,17.70
2017-09-26T03:18:27.975Z,18.57
2017-09-26T03:20:55.484Z,16.10
2017-09-26T03:23:23.422Z,16.53
2017-09-26T03:25:51.011Z,15.30
2017-09-26T03:28:18.692Z,18.00
2017-09-26T03:38:04.616Z,15.33
2017-09-26T03:43:28.663Z,16.30
2017-09-26T03:45:55.197Z,16.83
2017-09-26T03:48:21.907Z,16.70
2017-09-26T03:50:51.546Z,18.93
2017-09-26T03:53:18.247Z,17.50
2017-09-26T03:55:45.612Z,17.47
2017-09-26T03:58:12.436Z,16.50
2017-09-26T04:00:54.007Z,17.80
2017-09-26T04:03:23.841Z,17.67
2017-09-26T04:05:50.641Z,16.90
2017-09-26T04:08:17.551Z,18.93
2017-09-26T04:10:44.344Z,19.57
2017-09-26T04:13:11.903Z,18.77
2017-09-26T04:15:38.574Z,17.97
2017-09-26T04:18:05.902Z,18.33
2017-09-26T04:20:32.597Z,18.87
2017-09-26T04:23:04.293Z,20.33
2017-09-26T04:25:32.098Z,21.10
2017-09-26T04:27:59.035Z,17.90
2017-09-26T04:30:36.074Z,18.03
2017-09-26T04:33:05.581Z,16.30
2017-09-26T04:35:32.447Z,17.90
2017-09-26T04:37:59.232Z,16.80
2017-09-26T04:40:26.519Z,18.93
2017-09-26T04:42:53.711Z,17.70
2017-09-26T04:56:53.347Z,18.53
2017-09-26T04:59:19.888Z,19.23
2017-09-26T05:01:46.338Z,17.93
2017-09-26T05:04:12.964Z,18.07
2017-09-26T05:06:39.451Z,18.77
2017-09-26T05:09:06.126Z,20.40
2017-09-26T05:11:33.436Z,21.60
2017-09-26T05:13:59.982Z,19.43
2017-09-26T05:16:26.644Z,20.43
2017-09-26T05:18:53.388Z,17.63
2017-09-26T05:21:21.564Z,18.53
2017-09-26T05:23:49.411Z,17.83
2017-09-26T05:26:16.056Z,18.83
2017-09-26T05:28:43.233Z,18.20
2017-09-26T05:34:14.411Z,18.70
2017-09-26T05:36:42.283Z,19.43
2017-09-26T05:39:25.182Z,20.47
2017-09-26T05:41:52.406Z,27.60
2017-09-26T05:44:19.004Z,28.27
2017-09-26T05:46:46.433Z,29.07
2017-09-26T05:49:14.890Z,21.40
2017-09-26T05:51:41.632Z,22.70
2017-09-26T05:54:08.160Z,24.43
2017-09-26T05:59:30.751Z,24.47
2017-09-26T06:01:58.243Z,25.50
2017-09-26T06:04:25.622Z,28.07
2017-09-26T06:06:52.822Z,24.50
2017-09-26T06:09:19.731Z,25.40
2017-09-26T06:11:56.768Z,27.63
2017-09-26T06:14:23.547Z,27.37
2017-09-26T06:16:50.596Z,24.93
2017-09-26T06:19:17.564Z,22.90
2017-09-26T06:21:44.296Z,24.93
2017-09-26T06:24:11.852Z,25.60
2017-09-26T06:26:40.837Z,27.93
2017-09-26T06:32:22.124Z,22.10
2017-09-26T06:34:50.001Z,23.80
2017-09-26T06:37:20.335Z,26.13
2017-09-26T06:39:47.180Z,24.40
2017-09-26T06:42:13.938Z,24.00
2017-09-26T06:44:41.422Z,24.33
2017-09-26T06:47:08.607Z,25.50
2017-09-26T06:52:36.829Z,27.40
2017-09-26T06:55:03.569Z,24.43
2017-09-26T07:00:27.730Z,22.07
2017-09-26T07:02:54.648Z,23.40
2017-09-26T07:05:21.930Z,21.20
2017-09-26T07:07:48.561Z,23.43
2017-09-26T07:10:16.020Z,22.80
2017-09-26T07:12:42.545Z,22.33
2017-09-26T07:15:09.112Z,25.00
2017-09-26T07:17:40.593Z,26.07
2017-09-26T07:20:08.192Z,26.37
2017-09-26T07:22:34.916Z,25.70
2017-09-26T07:25:01.625Z,26.17
2017-09-26T07:27:29.979Z,26.60
2017-09-26T07:29:56.752Z,28.17
2017-09-26T07:32:24.257Z,27.50
2017-09-26T07:34:50.813Z,24.50
2017-09-26T07:37:17.395Z,27.90
2017-09-26T08:25:22.851Z,29.53
2017-09-26T08:27:50.360Z,27.27
2017-09-26T08:30:17.023Z,30.50
2017-09-26T08:35:42.210Z,28.53
2017-09-26T08:38:11.524Z,29.30
2017-09-26T08:40:38.336Z,30.53
2017-09-26T08:43:06.768Z,30.30
2017-09-26T08:45:34.568Z,28.37
2017-09-26T08:48:02.082Z,29.23
2017-09-26T08:50:29.541Z,28.47
2017-09-26T09:04:47.229Z,27.30
2017-09-26T09:07:14.278Z,30.60
2017-09-26T09:12:41.252Z,29.87
2017-09-26T09:15:18.765Z,29.20
2017-09-26T09:17:46.329Z,29.90
2017-09-26T09:20:13.784Z,29.83
2017-09-26T09:22:43.644Z,27.63
2017-09-26T09:25:11.160Z,28.40
2017-09-26T09:27:38.555Z,29.47
2017-09-26T09:30:05.174Z,29.77
2017-09-26T09:32:32.573Z,31.07
2017-09-26T09:34:59.033Z,31.13
2017-09-26T09:37:26.208Z,31.00
2017-09-26T09:39:52.896Z,28.70
2017-09-26T09:42:20.376Z,28.80
2017-09-26T09:44:47.738Z,30.30
2017-09-26T09:47:14.295Z,28.47
2017-09-26T09:49:42.959Z,30.17
2017-09-26T09:52:10.443Z,29.70
2017-09-26T10:06:04.474Z,27.67
2017-09-26T10:08:30.965Z,28.70
2017-09-26T10:26:28.656Z,25.53
2017-09-26T10:28:56.299Z,25.03
2017-09-26T10:31:22.899Z,25.90
2017-09-26T10:33:49.508Z,25.43
2017-09-26T10:38:48.770Z,23.00
2017-09-26T10:41:15.272Z,20.87
2017-09-26T10:43:42.603Z,22.17
2017-09-26T10:57:19.228Z,21.53
2017-09-26T10:59:46.742Z,21.47
2017-09-26T11:02:13.137Z,20.17
2017-09-26T11:04:41.162Z,19.27
2017-09-26T11:07:07.748Z,20.60
2017-09-26T11:09:35.044Z,19.07
2017-09-26T11:12:01.516Z,17.77
2017-09-26T11:14:29.096Z,17.70
2017-09-26T11:16:56.510Z,18.57
2017-09-26T11:19:23.344Z,17.60
2017-09-26T11:21:49.828Z,15.67
2017-09-26T11:27:15.108Z,18.67
2017-09-26T11:29:41.681Z,18.53
2017-09-26T11:32:08.132Z,17.97
2017-09-26T11:34:35.364Z,16.80
2017-09-26T11:39:58.548Z,22.13
2017-09-26T11:57:42.367Z,17.30
2017-09-26T12:00:08.924Z,18.00
2017-09-26T12:08:04.448Z,15.23
2017-09-26T12:10:32.224Z,15.07
2017-09-26T12:13:08.055Z,14.53
2017-09-26T12:15:34.499Z,14.60
2017-09-26T12:18:01.116Z,12.17
2017-09-26T12:20:37.977Z,12.40
2017-09-26T12:23:06.023Z,13.23
2017-09-26T12:25:34.594Z,10.37
2017-09-26T12:30:44.249Z,11.30
2017-09-26T12:33:12.912Z,13.40
2017-09-26T12:35:39.727Z,14.17
2017-09-26T12:53:23.351Z,14.13
2017-09-26T12:55:50.063Z,15.53
2017-09-26T13:01:00.944Z,15.07
2017-09-26T13:03:28.323Z,15.80
2017-09-26T13:05:54.901Z,13.80
2017-09-26T13:08:21.439Z,13.03
2017-09-26T13:10:48.267Z,14.63
2017-09-26T13:13:15.969Z,17.50
2017-09-26T13:15:43.281Z,18.07
2017-09-26T13:18:10.148Z,13.30
2017-09-26T13:20:36.576Z,14.30
2017-09-26T13:23:09.552Z,13.30
2017-09-26T13:25:46.118Z,13.17
2017-09-26T13:28:13.991Z,11.97
2017-09-26T13:30:44.188Z,12.37
2017-09-26T13:33:11.221Z,12.80
2017-09-26T13:35:38.211Z,12.77
2017-09-26T13:38:16.060Z,10.47
2017-09-26T13:40:43.367Z,10.50
2017-09-26T13:43:11.039Z,10.33
2017-09-26T13:45:37.698Z,9.77
2017-09-26T13:48:06.996Z,8.90
2017-09-26T13:50:34.552Z,9.33
2017-09-26T13:53:01.336Z,9.10
2017-09-26T13:55:27.689Z,10.27
2017-09-26T13:57:55.887Z,10.77
2017-09-26T14:00:22.739Z,9.87
2017-09-26T14:02:52.292Z,9.47
2017-09-26T14:05:18.861Z,9.47
2017-09-26T14:07:45.441Z,9.27
2017-09-26T14:10:13.396Z,11.73
2017-09-26T14:12:40.573Z,10.57
2017-09-26T14:15:08.722Z,11.63
2017-09-26T14:17:36.497Z,12.60
2017-09-26T14:20:03.734Z,12.57
2017-09-26T14:25:24.663Z,9.77
2017-09-26T14:30:48.480Z,8.60
2017-09-26T14:33:15.190Z,9.40
2017-09-26T14:35:55.356Z,8.70
2017-09-26T14:38:24.772Z,8.27
2017-09-26T14:40:51.346Z,7.70
2017-09-26T14:43:18.745Z,7.77
2017-09-26T14:45:46.162Z,7.80
2017-09-26T14:48:12.812Z,7.33
2017-09-26T14:50:40.079Z,6.20
2017-09-26T14:56:07.777Z,5.83
2017-09-26T14:58:34.331Z,6.03
2017-09-26T15:01:03.687Z,6.20
2017-09-26T15:03:30.244Z,5.60
2017-09-26T15:05:57.699Z,6.50
2017-09-26T15:08:25.080Z,5.73
2017-09-26T15:10:52.066Z,6.10
2017-09-26T15:13:18.803Z,6.40
2017-09-26T15:15:55.493Z,6.00
2017-09-26T15:18:22.251Z,6.10
2017-09-26T15:23:58.259Z,5.50
2017-09-26T15:29:05.701Z,6.57
2017-09-26T15:31:32.510Z,6.50
2017-09-26T15:34:01.008Z,6.67
2017-09-26T15:36:28.508Z,6.00
2017-09-26T15:38:55.232Z,6.60
2017-09-26T15:41:21.924Z,5.87
2017-09-26T15:43:49.236Z,5.87
2017-09-26T15:46:16.904Z,6.00
2017-09-26T15:48:45.336Z,6.23
2017-09-26T15:51:12.866Z,5.60
2017-09-26T15:53:39.575Z,6.30
2017-09-26T15:56:06.153Z,7.20
2017-09-26T15:58:35.816Z,7.13
2017-09-26T16:05:50.790Z,7.10
2017-09-26T16:08:17.521Z,6.60
2017-09-26T16:10:45.161Z,6.30
2017-09-26T16:13:11.885Z,7.47
2017-09-26T16:15:38.452Z,7.43
2017-09-26T16:35:31.138Z,8.50
2017-09-26T16:37:57.876Z,9.50
2017-09-26T16:40:24.340Z,11.20
2017-09-26T16:42:51.811Z,14.40
2017-09-26T16:45:19.355Z,22.10
2017-09-26T16:47:49.788Z,34.10
2017-09-26T16:50:16.412Z,11.10
2017-09-26T16:52:43.884Z,14.00
2017-09-26T16:55:11.294Z,14.90
2017-09-26T17:00:13.716Z,12.40
2017-09-26T17:02:40.635Z,9.50
2017-09-26T17:05:07.387Z,10.47
2017-09-26T17:07:35.587Z,7.90
2017-09-26T17:45:49.760Z,11.10
2017-09-26T17:48:18.260Z,11.67
2017-09-26T17:50:46.181Z,9.83
2017-09-26T17:53:13.044Z,12.00
2017-09-26T17:55:44.640Z,12.90
2017-09-26T18:01:05.626Z,12.47
2017-09-26T18:03:47.263Z,12.50
2017-09-26T18:06:14.077Z,13.47
2017-09-26T18:08:41.398Z,12.93
2017-09-26T18:16:55.983Z,12.93
2017-09-26T18:22:18.221Z,11.93
2017-09-26T18:24:45.611Z,11.67
2017-09-26T18:27:12.364Z,10.70
2017-09-26T18:33:13.314Z,10.87
2017-09-26T18:35:40.103Z,9.70
2017-09-26T18:41:00.887Z,10.77
2017-09-26T18:43:28.395Z,10.23
2017-09-26T18:45:55.220Z,9.87
2017-09-26T18:48:22.209Z,9.37
2017-09-26T18:50:50.794Z,9.43
2017-09-26T18:53:32.631Z,8.70
2017-09-26T18:55:59.121Z,10.73
2017-09-26T18:58:25.650Z,13.57
2017-09-26T19:00:52.310Z,14.80
2017-09-26T19:03:20.628Z,13.47
2017-09-26T19:05:49.374Z,12.20
2017-09-26T19:08:16.122Z,13.20
2017-09-26T19:10:57.754Z,16.80
2017-09-26T19:13:25.800Z,13.40
2017-09-26T19:15:52.604Z,13.90
2017-09-26T19:18:19.175Z,13.43
2017-09-26T19:23:42.932Z,14.27
2017-09-26T19:26:13.840Z,14.43
2017-09-26T19:28:41.111Z,15.10
2017-09-26T19:31:07.795Z,14.03
2017-09-26T19:33:38.331Z,13.07
2017-09-26T19:36:05.839Z,12.70
2017-09-26T19:38:47.654Z,13.20
2017-09-26T19:41:14.283Z,11.50
2017-09-26T19:43:42.077Z,13.70
2017-09-26T20:00:18.303Z,11.83
